Time;durP1;ratioP1;P1;durP2;ratioP2;P2;SDS_P1;SDS_P2;PMS_P1;PMS_P2;Temp;Humidity;BMP_temperature;BMP_pressure;BME280_temperature;BME280_humidity;BME280_pressure;Samples;Min_cycle;Max_cycle;Signal;HPM_P1;HPM_P2
2023/11/03 00:01:11;;;;;;;;;;;23.40;67.60;;;;;;5002382;28;2005;-68
2023/11/03 00:03:37;;;;;;;;;;;23.40;67.70;;;;;;5000734;28;1617;-68
2023/11/03 00:06:03;;;;;;;;;;;23.40;67.70;;;;;;5001248;28;1424;-68
2023/11/03 00:08:30;;;;;;;;;;;23.40;67.70;;;;;;5002340;28;1318;-68
2023/11/03 00:11:01;;;;;;;;;;;23.40;67.70;;;;;;5000147;28;1406;-67
2023/11/03 00:13:26;;;;;;;;;;;23.40;67.80;;;;;;5006337;28;1483;-67
2023/11/03 00:15:53;;;;;;;;;;;23.40;67.90;;;;;;5001022;28;1670;-68
2023/11/03 00:18:19;;;;;;;;;;;23.40;67.90;;;;;;5002291;28;1281;-68
2023/11/03 00:20:45;;;;;;;;;;;23.40;67.90;;;;;;5004380;28;1977;-68
2023/11/03 00:23:10;;;;;;;;;;;23.40;67.90;;;;;;5007821;28;1253;-68
2023/11/03 00:25:36;;;;;;;;;;;23.40;67.90;;;;;;5005016;28;1330;-67
2023/11/03 00:28:02;;;;;;;;;;;23.40;67.90;;;;;;5005460;28;1729;-68
2023/11/03 00:30:28;;;;;;;;;;;23.40;68.00;;;;;;5005869;28;1496;-67
2023/11/03 00:32:53;;;;;;;;;;;23.40;68.00;;;;;;5007085;28;1312;-67
2023/11/03 00:35:19;;;;;;;;;;;23.40;68.00;;;;;;5002513;28;1512;-67
2023/11/03 00:37:44;;;;;;;;;;;23.40;68.10;;;;;;5004804;28;1450;-67
2023/11/03 00:40:13;;;;;;;;;;;23.40;68.10;;;;;;5004263;28;1965;-67
2023/11/03 00:42:39;;;;;;;;;;;23.40;68.10;;;;;;5007314;28;1466;-68
2023/11/03 00:45:05;;;;;;;;;;;23.40;68.00;;;;;;5004075;28;1410;-67
2023/11/03 00:47:30;;;;;;;;;;;23.40;65.60;;;;;;5004367;28;1373;-67
2023/11/03 00:49:56;;;;;;;;;;;23.30;65.50;;;;;;5003180;28;1221;-68
2023/11/03 00:52:25;;;;;;;;;;;23.30;66.00;;;;;;5005415;28;1383;-67
2023/11/03 00:54:51;;;;;;;;;;;23.20;66.00;;;;;;5004494;28;1411;-67
2023/11/03 00:57:17;;;;;;;;;;;23.20;66.10;;;;;;5003963;28;1313;-68
2023/11/03 00:59:42;;;;;;;;;;;23.10;66.10;;;;;;5005882;28;1914;-67
2023/11/03 01:02:09;;;;;;;;;;;23.10;66.30;;;;;;5006278;28;1379;-67
2023/11/03 01:04:36;;;;;;;;;;;23.00;66.40;;;;;;5004416;28;1289;-67
2023/11/03 01:07:02;;;;;;;;;;;23.00;66.50;;;;;;5006724;28;1482;-68
2023/11/03 01:09:27;;;;;;;;;;;22.90;67.40;;;;;;5005835;28;1661;-67
2023/11/03 01:11:54;;;;;;;;;;;22.90;66.80;;;;;;5005246;28;1440;-68
2023/11/03 01:14:19;;;;;;;;;;;22.80;66.80;;;;;;5003172;28;1365;-68
2023/11/03 01:16:45;;;;;;;;;;;22.80;66.90;;;;;;5006071;28;1425;-67
2023/11/03 01:19:10;;;;;;;;;;;22.80;67.00;;;;;;5007861;28;1433;-67
2023/11/03 01:21:39;;;;;;;;;;;22.70;67.10;;;;;;5002882;28;1890;-68
2023/11/03 01:24:06;;;;;;;;;;;22.70;67.20;;;;;;5003788;28;1712;-67
2023/11/03 01:26:33;;;;;;;;;;;22.70;67.30;;;;;;5000986;28;1489;-67
2023/11/03 01:28:59;;;;;;;;;;;22.60;67.30;;;;;;5006634;28;1269;-66
2023/11/03 01:31:24;;;;;;;;;;;22.60;67.40;;;;;;5003647;28;1470;-67
2023/11/03 01:33:50;;;;;;;;;;;22.60;67.50;;;;;;5003344;28;1477;-67
2023/11/03 01:36:15;;;;;;;;;;;22.50;67.50;;;;;;5002478;28;1481;-67
2023/11/03 01:38:41;;;;;;;;;;;22.50;67.60;;;;;;5002657;28;1746;-67
2023/11/03 01:41:07;;;;;;;;;;;22.50;67.70;;;;;;5004009;28;1957;-68
2023/11/03 01:43:35;;;;;;;;;;;22.50;67.80;;;;;;5000045;28;1455;-68
2023/11/03 01:46:02;;;;;;;;;;;22.40;67.80;;;;;;5000636;28;1509;-67
2023/11/03 01:48:28;;;;;;;;;;;22.40;68.00;;;;;;5003859;28;1283;-66
2023/11/03 01:50:54;;;;;;;;;;;22.40;68.00;;;;;;5003294;28;1458;-67
2023/11/03 01:53:19;;;;;;;;;;;22.40;68.10;;;;;;5008593;28;1518;-67
2023/11/03 01:55:45;;;;;;;;;;;22.40;68.10;;;;;;5004371;28;2141;-67
2023/11/03 01:58:10;;;;;;;;;;;22.30;68.10;;;;;;5003903;28;1288;-67
2023/11/03 02:00:36;;;;;;;;;;;22.30;68.20;;;;;;5003361;28;2041;-67
2023/11/03 02:03:02;;;;;;;;;;;22.30;68.30;;;;;;5003123;28;1590;-67
2023/11/03 02:05:28;;;;;;;;;;;22.30;68.30;;;;;;5007471;28;1402;-67
2023/11/03 02:07:53;;;;;;;;;;;22.30;68.40;;;;;;5005640;28;1519;-67
2023/11/03 02:10:19;;;;;;;;;;;22.20;68.30;;;;;;5006288;28;1455;-67
2023/11/03 02:12:44;;;;;;;;;;;22.20;68.40;;;;;;5003116;28;1410;-67
2023/11/03 02:15:10;;;;;;;;;;;22.20;68.40;;;;;;5004936;28;1279;-67
2023/11/03 02:17:35;;;;;;;;;;;22.20;68.50;;;;;;5005491;28;1359;-68
2023/11/03 02:20:01;;;;;;;;;;;22.20;68.50;;;;;;5003868;28;1952;-68
2023/11/03 02:22:27;;;;;;;;;;;22.20;68.70;;;;;;5005910;28;1417;-68
2023/11/03 02:24:52;;;;;;;;;;;22.10;68.60;;;;;;5002867;28;1346;-67
2023/11/03 02:27:18;;;;;;;;;;;22.10;68.60;;;;;;5000440;28;1447;-68
2023/11/03 02:29:44;;;;;;;;;;;22.10;68.70;;;;;;5004672;28;1359;-67
2023/11/03 02:32:10;;;;;;;;;;;22.10;69.50;;;;;;5017193;28;1444;-68
2023/11/03 02:34:35;;;;;;;;;;;22.10;68.70;;;;;;5005288;28;1310;-67
2023/11/03 02:37:01;;;;;;;;;;;22.10;68.80;;;;;;5001844;28;1383;-68
2023/11/03 02:39:26;;;;;;;;;;;22.10;68.80;;;;;;5003011;28;1906;-67
2023/11/03 02:41:52;;;;;;;;;;;22.10;68.80;;;;;;5003554;28;1324;-67
2023/11/03 02:44:17;;;;;;;;;;;22.00;68.80;;;;;;5003017;28;1221;-66
2023/11/03 02:46:44;;;;;;;;;;;22.00;68.90;;;;;;5002061;28;1467;-67
2023/11/03 02:49:09;;;;;;;;;;;22.00;68.90;;;;;;5001187;28;972;-68
2023/11/03 02:51:35;;;;;;;;;;;22.00;69.00;;;;;;5005321;28;1356;-67
2023/11/03 02:54:00;;;;;;;;;;;21.90;68.90;;;;;;5006329;28;1189;-67
2023/11/03 02:56:27;;;;;;;;;;;22.00;69.00;;;;;;5009990;28;1255;-68
2023/11/03 02:58:52;;;;;;;;;;;21.90;69.00;;;;;;5003820;28;1232;-67
2023/11/03 03:01:24;;;;;;;;;;;21.90;69.00;;;;;;5010329;28;1914;-67
2023/11/03 03:03:50;;;;;;;;;;;21.90;69.00;;;;;;5003693;28;1170;-67
2023/11/03 03:06:15;;;;;;;;;;;21.90;69.10;;;;;;4988297;28;1256;-67
2023/11/03 03:08:41;;;;;;;;;;;21.90;69.10;;;;;;5002969;28;1212;-67
2023/11/03 03:11:06;;;;;;;;;;;21.90;69.20;;;;;;5003230;28;1375;-67
2023/11/03 03:13:32;;;;;;;;;;;21.90;69.20;;;;;;5002253;28;1427;-67
2023/11/03 03:15:57;;;;;;;;;;;21.90;69.20;;;;;;5002889;28;1331;-67
2023/11/03 03:18:23;;;;;;;;;;;21.90;69.20;;;;;;5001645;28;1450;-66
2023/11/03 03:20:50;;;;;;;;;;;21.80;69.10;;;;;;5001182;28;1903;-67
2023/11/03 03:23:15;;;;;;;;;;;21.80;69.20;;;;;;5002229;28;1402;-68
2023/11/03 03:25:41;;;;;;;;;;;21.80;69.20;;;;;;5004876;28;1346;-68
2023/11/03 03:28:06;;;;;;;;;;;21.80;69.20;;;;;;5001889;28;1533;-67
2023/11/03 03:30:32;;;;;;;;;;;21.80;69.30;;;;;;5003853;28;1288;-67
2023/11/03 03:32:57;;;;;;;;;;;21.80;69.30;;;;;;5004769;28;962;-68
2023/11/03 03:35:22;;;;;;;;;;;21.80;69.40;;;;;;5001118;28;1282;-68
2023/11/03 03:37:48;;;;;;;;;;;21.80;69.40;;;;;;5003510;28;1318;-68
2023/11/03 03:40:14;;;;;;;;;;;21.80;69.40;;;;;;5004072;28;1976;-68
2023/11/03 03:42:40;;;;;;;;;;;21.80;69.40;;;;;;5001279;28;1472;-67
2023/11/03 03:45:06;;;;;;;;;;;21.80;69.50;;;;;;4999160;28;1742;-67
2023/11/03 03:47:33;;;;;;;;;;;21.80;69.50;;;;;;5001042;28;1378;-67
2023/11/03 03:49:58;;;;;;;;;;;21.70;69.50;;;;;;5002062;28;1343;-67
2023/11/03 03:52:24;;;;;;;;;;;21.70;69.50;;;;;;5003424;28;1201;-67
2023/11/03 03:54:49;;;;;;;;;;;21.70;69.50;;;;;;4999618;28;1457;-67
2023/11/03 03:57:15;;;;;;;;;;;21.70;69.50;;;;;;5001635;28;1503;-67
2023/11/03 03:59:40;;;;;;;;;;;21.70;69.50;;;;;;5001785;28;1914;-67
2023/11/03 04:02:06;;;;;;;;;;;21.70;69.50;;;;;;5001214;28;1430;-67
2023/11/03 04:04:31;;;;;;;;;;;21.70;69.60;;;;;;5004873;28;1017;-67
2023/11/03 04:06:57;;;;;;;;;;;21.70;69.60;;;;;;5000190;28;1721;-67
2023/11/03 04:09:22;;;;;;;;;;;21.70;69.60;;;;;;5002414;28;1319;-66
2023/11/03 04:11:48;;;;;;;;;;;21.70;69.60;;;;;;5003158;28;1441;-66
2023/11/03 04:14:13;;;;;;;;;;;21.70;69.60;;;;;;4999357;28;1443;-66
2023/11/03 04:16:39;;;;;;;;;;;21.70;69.70;;;;;;5004563;28;1388;-66
2023/11/03 04:19:04;;;;;;;;;;;21.70;69.70;;;;;;5009258;28;1588;-64
2023/11/03 04:21:30;;;;;;;;;;;21.60;69.60;;;;;;5004355;28;2003;-65
2023/11/03 04:23:58;;;;;;;;;;;21.60;69.60;;;;;;5002026;28;1529;-65
2023/11/03 04:26:24;;;;;;;;;;;21.60;69.60;;;;;;5003109;28;1324;-67
2023/11/03 04:28:49;;;;;;;;;;;21.60;69.60;;;;;;5002863;28;1370;-68
2023/11/03 04:31:14;;;;;;;;;;;21.60;69.60;;;;;;5001805;28;1455;-68
2023/11/03 04:33:40;;;;;;;;;;;21.60;69.60;;;;;;4999361;28;1376;-68
2023/11/03 04:36:06;;;;;;;;;;;21.60;69.60;;;;;;4996828;28;1347;-68
2023/11/03 04:38:31;;;;;;;;;;;21.60;69.70;;;;;;5002537;28;1429;-67
2023/11/03 04:40:57;;;;;;;;;;;21.60;69.70;;;;;;5004342;28;1958;-67
2023/11/03 04:43:23;;;;;;;;;;;21.60;69.70;;;;;;5001888;28;1281;-67
2023/11/03 04:45:48;;;;;;;;;;;21.60;69.70;;;;;;5001938;28;1027;-67
2023/11/03 04:48:14;;;;;;;;;;;21.60;69.80;;;;;;5002353;28;1239;-67
2023/11/03 04:50:39;;;;;;;;;;;21.60;70.50;;;;;;4999575;28;1371;-67
2023/11/03 04:53:05;;;;;;;;;;;21.50;69.70;;;;;;5000100;28;1046;-66
2023/11/03 04:55:30;;;;;;;;;;;21.60;69.80;;;;;;5000972;28;1119;-67
2023/11/03 04:57:56;;;;;;;;;;;21.50;69.70;;;;;;5000369;28;1007;-67
2023/11/03 05:00:22;;;;;;;;;;;21.50;69.70;;;;;;5000156;28;1922;-67
2023/11/03 05:02:49;;;;;;;;;;;21.50;69.80;;;;;;5002979;28;828;-66
2023/11/03 05:05:15;;;;;;;;;;;21.50;69.80;;;;;;5003380;28;1095;-66
2023/11/03 05:07:40;;;;;;;;;;;21.50;69.80;;;;;;5001564;28;1256;-67
2023/11/03 05:10:06;;;;;;;;;;;21.50;69.80;;;;;;5003477;28;1415;-67
2023/11/03 05:12:32;;;;;;;;;;;21.50;69.90;;;;;;5004823;28;914;-66
2023/11/03 05:14:57;;;;;;;;;;;21.50;69.90;;;;;;5004254;28;1325;-66
2023/11/03 05:17:23;;;;;;;;;;;21.50;69.90;;;;;;5006091;28;1578;-66
2023/11/03 05:19:50;;;;;;;;;;;21.50;70.00;;;;;;5001241;28;1902;-67
2023/11/03 05:22:16;;;;;;;;;;;21.50;70.00;;;;;;5017024;28;1292;-67
2023/11/03 05:24:43;;;;;;;;;;;21.50;70.00;;;;;;5003562;28;1385;-65
2023/11/03 05:27:08;;;;;;;;;;;21.50;70.00;;;;;;5003976;28;1440;-66
2023/11/03 05:29:34;;;;;;;;;;;21.50;70.00;;;;;;5003113;28;1313;-66
2023/11/03 05:31:59;;;;;;;;;;;21.50;70.00;;;;;;5006790;28;1425;-65
2023/11/03 05:34:25;;;;;;;;;;;21.50;70.00;;;;;;5005240;28;1514;-65
2023/11/03 05:36:52;;;;;;;;;;;21.50;70.10;;;;;;5001557;28;1387;-65
2023/11/03 05:39:17;;;;;;;;;;;21.50;70.10;;;;;;5004300;28;1566;-67
2023/11/03 05:41:43;;;;;;;;;;;21.50;70.10;;;;;;5000072;28;1910;-67
2023/11/03 05:44:09;;;;;;;;;;;21.50;70.10;;;;;;5007329;28;1530;-68
2023/11/03 05:46:34;;;;;;;;;;;21.50;70.10;;;;;;5002948;28;1361;-67
2023/11/03 05:49:00;;;;;;;;;;;21.50;70.10;;;;;;5003665;28;1360;-67
2023/11/03 05:51:26;;;;;;;;;;;21.50;70.10;;;;;;5002271;28;1502;-67
2023/11/03 05:53:51;;;;;;;;;;;21.50;70.10;;;;;;5004836;28;1618;-67
2023/11/03 05:56:17;;;;;;;;;;;21.40;70.10;;;;;;5001358;28;1590;-66
2023/11/03 05:58:42;;;;;;;;;;;21.40;70.10;;;;;;5001040;28;1227;-66
2023/11/03 06:01:08;;;;;;;;;;;21.40;70.10;;;;;;5002432;28;1914;-66
2023/11/03 06:03:33;;;;;;;;;;;21.40;70.10;;;;;;5003749;28;1321;-66
2023/11/03 06:05:59;;;;;;;;;;;21.40;70.10;;;;;;5003541;28;1392;-66
2023/11/03 06:08:24;;;;;;;;;;;21.40;70.10;;;;;;5003237;28;1449;-66
2023/11/03 06:10:50;;;;;;;;;;;21.40;70.10;;;;;;5002413;28;1418;-66
2023/11/03 06:13:19;;;;;;;;;;;21.40;70.20;;;;;;5004243;28;1418;-66
2023/11/03 06:15:44;;;;;;;;;;;21.40;70.10;;;;;;5003595;28;1481;-66
2023/11/03 06:18:10;;;;;;;;;;;21.40;70.20;;;;;;5001077;28;1599;-66
2023/11/03 06:20:35;;;;;;;;;;;21.40;70.20;;;;;;5004503;28;1981;-66
2023/11/03 06:23:01;;;;;;;;;;;21.40;70.20;;;;;;5003366;28;1487;-66
2023/11/03 06:25:27;;;;;;;;;;;21.40;70.20;;;;;;4998963;28;1372;-66
2023/11/03 06:27:52;;;;;;;;;;;21.40;70.20;;;;;;5008765;28;1377;-66
2023/11/03 06:30:18;;;;;;;;;;;21.40;70.30;;;;;;5003366;28;1274;-66
2023/11/03 06:32:43;;;;;;;;;;;21.40;70.30;;;;;;5004060;28;1458;-66
2023/11/03 06:35:09;;;;;;;;;;;21.40;70.30;;;;;;5004695;28;1823;-65
2023/11/03 06:37:34;;;;;;;;;;;21.40;70.30;;;;;;5002724;28;1238;-67
2023/11/03 06:40:00;;;;;;;;;;;21.40;70.30;;;;;;5005661;28;1926;-67
2023/11/03 06:42:25;;;;;;;;;;;21.40;70.30;;;;;;5002220;28;1466;-66
2023/11/03 06:44:51;;;;;;;;;;;21.40;70.30;;;;;;5006819;28;1506;-66
2023/11/03 06:47:16;;;;;;;;;;;21.40;70.40;;;;;;5001907;28;1409;-66
2023/11/03 06:49:44;;;;;;;;;;;21.30;71.00;;;;;;5002737;28;1196;-66
2023/11/03 06:52:10;;;;;;;;;;;21.40;70.30;;;;;;5006762;28;1508;-66
2023/11/03 06:54:35;;;;;;;;;;;21.30;70.30;;;;;;5003080;28;1361;-66
2023/11/03 06:57:01;;;;;;;;;;;21.30;70.30;;;;;;5001535;28;1524;-67
2023/11/03 06:59:26;;;;;;;;;;;21.30;70.30;;;;;;5002521;28;1270;-66
2023/11/03 07:01:52;;;;;;;;;;;21.30;70.30;;;;;;5002765;28;1902;-66
2023/11/03 07:04:17;;;;;;;;;;;21.30;70.40;;;;;;5002933;28;1679;-67
2023/11/03 07:06:43;;;;;;;;;;;21.30;69.90;;;;;;4999514;28;1323;-67
2023/11/03 07:09:10;;;;;;;;;;;21.30;64.50;;;;;;5002851;28;1298;-68
2023/11/03 07:11:35;;;;;;;;;;;21.30;61.80;;;;;;5001489;28;1589;-68
2023/11/03 07:14:01;;;;;;;;;;;21.30;63.80;;;;;;5006154;28;1359;-68
2023/11/03 07:16:26;;;;;;;;;;;21.30;64.00;;;;;;5001989;28;1224;-68
2023/11/03 07:18:51;;;;;;;;;;;21.30;64.10;;;;;;5001294;28;1561;-68
2023/11/03 07:21:17;;;;;;;;;;;21.30;64.40;;;;;;5000591;28;2085;-68
2023/11/03 07:23:42;;;;;;;;;;;21.30;64.60;;;;;;4997626;28;2007;-67
2023/11/03 07:26:12;;;;;;;;;;;21.30;64.60;;;;;;5003176;28;1562;-67
2023/11/03 07:28:38;;;;;;;;;;;21.40;64.80;;;;;;5000768;28;1242;-66
2023/11/03 07:31:03;;;;;;;;;;;21.40;65.00;;;;;;4998846;28;1515;-67
2023/11/03 07:33:30;;;;;;;;;;;21.40;65.20;;;;;;5002373;28;1390;-66
2023/11/03 07:35:55;;;;;;;;;;;21.40;65.50;;;;;;5000574;28;1311;-66
2023/11/03 07:38:21;;;;;;;;;;;21.40;65.70;;;;;;5000525;28;1253;-66
2023/11/03 07:40:47;;;;;;;;;;;21.40;65.90;;;;;;5002641;28;1902;-66
2023/11/03 07:43:14;;;;;;;;;;;21.40;66.00;;;;;;5001059;28;1397;-66
2023/11/03 07:45:39;;;;;;;;;;;21.50;66.20;;;;;;5000874;28;1457;-66
2023/11/03 07:48:05;;;;;;;;;;;21.50;66.30;;;;;;5016929;28;1444;-67
2023/11/03 07:50:31;;;;;;;;;;;21.50;66.40;;;;;;5003144;28;1300;-68
2023/11/03 07:52:56;;;;;;;;;;;21.50;66.40;;;;;;4999183;28;1086;-68
2023/11/03 07:55:22;;;;;;;;;;;21.50;66.50;;;;;;5001312;28;869;-67
2023/11/03 07:57:48;;;;;;;;;;;21.50;66.60;;;;;;4999924;28;1335;-66
2023/11/03 08:00:15;;;;;;;;;;;21.50;66.60;;;;;;5002199;28;1950;-67
2023/11/03 08:02:41;;;;;;;;;;;21.50;66.70;;;;;;5000174;28;1714;-67
2023/11/03 08:05:07;;;;;;;;;;;21.50;66.70;;;;;;4998635;28;1459;-67
2023/11/03 08:07:33;;;;;;;;;;;21.50;66.70;;;;;;4994012;28;1283;-67
2023/11/03 08:09:59;;;;;;;;;;;21.50;66.70;;;;;;5000856;28;1434;-67
2023/11/03 08:12:25;;;;;;;;;;;21.60;66.90;;;;;;5002663;28;1707;-67
2023/11/03 08:14:51;;;;;;;;;;;21.60;66.90;;;;;;4998565;28;1447;-67
2023/11/03 08:17:19;;;;;;;;;;;21.60;66.90;;;;;;4999412;28;1307;-67
2023/11/03 08:19:45;;;;;;;;;;;21.60;66.90;;;;;;5001807;28;1906;-67
2023/11/03 08:22:11;;;;;;;;;;;21.60;66.90;;;;;;5016211;28;1823;-69
2023/11/03 08:24:37;;;;;;;;;;;21.60;67.00;;;;;;5002960;28;1031;-66
2023/11/03 08:27:03;;;;;;;;;;;21.60;67.00;;;;;;5001297;28;1337;-66
2023/11/03 08:29:28;;;;;;;;;;;21.60;67.00;;;;;;5000566;28;1148;-66
2023/11/03 08:31:54;;;;;;;;;;;21.60;67.00;;;;;;5001823;28;1447;-65
2023/11/03 08:34:20;;;;;;;;;;;21.60;67.00;;;;;;5000789;28;1427;-65
2023/11/03 08:36:46;;;;;;;;;;;21.60;67.00;;;;;;4998780;28;1344;-65
2023/11/03 08:39:12;;;;;;;;;;;21.60;67.00;;;;;;5000093;28;1668;-65
2023/11/03 08:41:37;;;;;;;;;;;21.60;67.00;;;;;;5000570;28;1965;-66
2023/11/03 08:44:03;;;;;;;;;;;21.60;67.00;;;;;;5008543;28;1004;-66
2023/11/03 08:46:29;;;;;;;;;;;21.60;67.10;;;;;;5001996;28;1160;-66
2023/11/03 08:48:55;;;;;;;;;;;21.60;67.10;;;;;;5004349;28;1375;-66
2023/11/03 08:51:22;;;;;;;;;;;21.60;67.10;;;;;;5004774;28;1281;-66
2023/11/03 08:53:48;;;;;;;;;;;21.60;67.10;;;;;;5006097;28;1557;-66
2023/11/03 08:56:13;;;;;;;;;;;21.60;67.10;;;;;;5003955;28;1822;-66
2023/11/03 08:58:42;;;;;;;;;;;21.60;67.10;;;;;;5005737;28;1426;-65
2023/11/03 09:01:07;;;;;;;;;;;21.60;67.10;;;;;;5005306;28;1910;-65
2023/11/03 09:03:34;;;;;;;;;;;21.60;67.10;;;;;;5018621;28;1469;-65
2023/11/03 09:06:00;;;;;;;;;;;21.60;67.20;;;;;;5002755;28;1391;-65
2023/11/03 09:08:25;;;;;;;;;;;21.60;67.20;;;;;;5008124;28;1185;-65
2023/11/03 09:10:51;;;;;;;;;;;21.60;67.20;;;;;;5004743;28;1439;-65
2023/11/03 09:13:16;;;;;;;;;;;21.60;67.20;;;;;;5004924;28;1616;-66
2023/11/03 09:15:43;;;;;;;;;;;21.60;67.20;;;;;;5002472;28;1394;-66
2023/11/03 09:18:09;;;;;;;;;;;21.60;67.30;;;;;;5002050;28;1534;-65
2023/11/03 09:20:34;;;;;;;;;;;21.60;67.20;;;;;;5003915;28;1906;-66
2023/11/03 09:23:00;;;;;;;;;;;21.60;67.20;;;;;;4998631;28;1436;-66
2023/11/03 09:25:26;;;;;;;;;;;21.60;67.30;;;;;;4997977;28;1638;-67
2023/11/03 09:27:52;;;;;;;;;;;21.60;67.20;;;;;;5003267;28;1538;-67
2023/11/03 09:30:18;;;;;;;;;;;21.60;67.30;;;;;;5002525;28;1306;-66
2023/11/03 09:32:47;;;;;;;;;;;21.60;67.30;;;;;;5001715;28;1454;-67
2023/11/03 09:35:13;;;;;;;;;;;21.60;67.30;;;;;;5007469;28;1682;-68
2023/11/03 09:37:38;;;;;;;;;;;21.60;67.30;;;;;;5006567;28;1054;-67
2023/11/03 09:40:06;;;;;;;;;;;21.60;67.20;;;;;;5008075;28;1914;-67
2023/11/03 09:42:32;;;;;;;;;;;21.60;67.20;;;;;;5011494;28;1441;-67
2023/11/03 09:44:58;;;;;;;;;;;21.60;67.20;;;;;;5011893;28;872;-69
2023/11/03 09:47:26;;;;;;;;;;;21.70;67.20;;;;;;4998104;28;1352;-67
2023/11/03 09:49:57;;;;;;;;;;;21.70;67.10;;;;;;5016400;28;1508;-67
2023/11/03 09:52:23;;;;;;;;;;;21.70;67.10;;;;;;5005470;28;1442;-67
2023/11/03 09:54:49;;;;;;;;;;;21.70;67.10;;;;;;4999920;28;1215;-67
2023/11/03 09:57:14;;;;;;;;;;;21.70;67.00;;;;;;5005371;28;2198;-67
2023/11/03 09:59:40;;;;;;;;;;;21.70;66.90;;;;;;5005830;28;1983;-68
2023/11/03 10:02:09;;;;;;;;;;;21.70;66.90;;;;;;5005692;28;1316;-67
2023/11/03 10:04:44;;;;;;;;;;;21.80;66.90;;;;;;5002687;28;1243;-67
2023/11/03 10:07:10;;;;;;;;;;;21.80;66.90;;;;;;5003073;28;1490;-67
2023/11/03 10:09:45;;;;;;;;;;;21.80;66.80;;;;;;4999763;28;1361;-67
2023/11/03 10:12:11;;;;;;;;;;;21.80;66.80;;;;;;5002147;28;1373;-67
2023/11/03 10:14:39;;;;;;;;;;;21.80;66.80;;;;;;5000993;28;1326;-67
2023/11/03 10:17:04;;;;;;;;;;;21.80;66.70;;;;;;5003047;28;1203;-67
2023/11/03 10:19:30;;;;;;;;;;;21.80;66.70;;;;;;5007789;28;1295;-67
2023/11/03 10:21:58;;;;;;;;;;;21.80;67.40;;;;;;5000147;28;2037;-67
2023/11/03 10:24:23;;;;;;;;;;;21.80;66.70;;;;;;5002435;28;1261;-67
2023/11/03 10:26:50;;;;;;;;;;;21.80;66.80;;;;;;5003437;28;1465;-68
2023/11/03 10:29:16;;;;;;;;;;;21.80;66.80;;;;;;5005419;28;1273;-67
2023/11/03 10:31:46;;;;;;;;;;;21.80;66.90;;;;;;5000960;28;1399;-67
2023/11/03 10:34:13;;;;;;;;;;;21.80;66.90;;;;;;5003185;28;891;-67
2023/11/03 10:36:39;;;;;;;;;;;21.80;66.90;;;;;;4999696;28;1048;-67
2023/11/03 10:39:05;;;;;;;;;;;21.80;66.90;;;;;;4999986;28;1084;-67
2023/11/03 10:41:31;;;;;;;;;;;21.80;67.00;;;;;;5021993;28;1890;-67
2023/11/03 10:43:57;;;;;;;;;;;21.80;67.00;;;;;;5003256;28;1345;-67
2023/11/03 10:46:43;;;;;;;;;;;21.70;67.00;;;;;;5000005;28;1706;-67
2023/11/03 10:49:35;;;;;;;;;;;21.80;67.10;;;;;;5002152;28;1382;-67
2023/11/03 10:52:12;;;;;;;;;;;21.70;67.00;;;;;;4995686;28;1306;-67
2023/11/03 10:54:44;;;;;;;;;;;21.70;67.10;;;;;;5002276;28;1559;-67
2023/11/03 10:57:12;;;;;;;;;;;21.70;67.10;;;;;;5001914;28;1492;-68
2023/11/03 10:59:39;;;;;;;;;;;21.70;67.10;;;;;;5000601;28;1464;-67
2023/11/03 11:02:16;;;;;;;;;;;21.70;67.20;;;;;;5003125;28;1570;-67
2023/11/03 11:04:47;;;;;;;;;;;21.70;67.20;;;;;;5000867;28;1318;-67
2023/11/03 11:07:16;;;;;;;;;;;21.70;67.30;;;;;;5003552;28;1440;-67
2023/11/03 11:09:48;;;;;;;;;;;21.70;67.30;;;;;;5000731;28;1555;-67
2023/11/03 11:12:14;;;;;;;;;;;21.60;67.40;;;;;;5000948;28;1464;-67
2023/11/03 11:14:40;;;;;;;;;;;21.60;67.40;;;;;;5003987;28;1464;-67
2023/11/03 11:17:09;;;;;;;;;;;21.60;67.40;;;;;;4999903;28;1326;-67
2023/11/03 11:19:35;;;;;;;;;;;21.60;67.50;;;;;;5008469;28;1169;-67
2023/11/03 11:22:01;;;;;;;;;;;21.60;67.50;;;;;;5002224;28;1906;-67
2023/11/03 11:24:29;;;;;;;;;;;21.60;67.50;;;;;;5003808;28;1147;-67
2023/11/03 11:27:14;;;;;;;;;;;21.60;67.50;;;;;;5007037;28;1479;-67
2023/11/03 11:29:39;;;;;;;;;;;21.60;67.60;;;;;;5005574;28;1105;-67
2023/11/03 11:32:08;;;;;;;;;;;21.60;67.60;;;;;;4987892;28;1534;-67
2023/11/03 11:34:40;;;;;;;;;;;21.60;67.70;;;;;;5017458;28;1318;-67
2023/11/03 11:37:25;;;;;;;;;;;21.50;67.60;;;;;;5002882;28;1465;-67
2023/11/03 11:39:52;;;;;;;;;;;21.50;67.70;;;;;;5002791;28;1985;-67
2023/11/03 11:42:18;;;;;;;;;;;21.50;67.80;;;;;;5002551;28;1399;-67
2023/11/03 11:44:43;;;;;;;;;;;21.50;67.80;;;;;;5001290;28;1523;-67
2023/11/03 11:47:09;;;;;;;;;;;21.50;67.80;;;;;;4996842;28;1589;-67
2023/11/03 11:49:35;;;;;;;;;;;21.50;67.80;;;;;;5005897;28;1358;-67
2023/11/03 11:52:00;;;;;;;;;;;21.50;68.60;;;;;;5000973;28;1379;-67
2023/11/03 11:54:26;;;;;;;;;;;21.50;67.90;;;;;;5018163;28;1399;-67
2023/11/03 11:56:51;;;;;;;;;;;21.50;68.00;;;;;;4998653;28;1204;-67
2023/11/03 11:59:17;;;;;;;;;;;21.50;68.00;;;;;;5001807;28;1241;-67
2023/11/03 12:01:43;;;;;;;;;;;21.50;68.00;;;;;;5003442;28;1919;-67
2023/11/03 12:04:11;;;;;;;;;;;21.50;68.10;;;;;;5001802;28;1494;-67
2023/11/03 12:06:36;;;;;;;;;;;21.50;68.10;;;;;;5001988;28;1363;-67
2023/11/03 12:09:03;;;;;;;;;;;21.50;68.10;;;;;;5005145;28;1390;-67
2023/11/03 12:11:29;;;;;;;;;;;21.50;68.10;;;;;;5002301;28;1336;-67
2023/11/03 12:13:54;;;;;;;;;;;21.40;68.10;;;;;;5005959;28;1496;-68
2023/11/03 12:16:20;;;;;;;;;;;21.40;68.20;;;;;;5003817;28;1482;-67
2023/11/03 12:18:45;;;;;;;;;;;21.40;68.20;;;;;;5008624;28;1649;-67
2023/11/03 12:21:11;;;;;;;;;;;21.40;68.20;;;;;;5004051;28;1902;-67
2023/11/03 12:23:39;;;;;;;;;;;21.40;68.20;;;;;;5004642;28;1320;-67
2023/11/03 12:26:04;;;;;;;;;;;21.40;68.30;;;;;;5002986;28;1439;-67
2023/11/03 12:28:30;;;;;;;;;;;21.40;68.30;;;;;;5005214;28;1383;-67
2023/11/03 12:30:56;;;;;;;;;;;21.40;68.30;;;;;;5005378;28;1473;-67
2023/11/03 12:33:21;;;;;;;;;;;21.40;68.30;;;;;;5003372;28;1384;-67
2023/11/03 12:35:47;;;;;;;;;;;21.40;68.30;;;;;;5009972;28;1257;-67
2023/11/03 12:38:16;;;;;;;;;;;21.40;68.40;;;;;;5002116;28;1151;-67
2023/11/03 12:40:42;;;;;;;;;;;21.40;68.40;;;;;;5007595;28;1954;-67
2023/11/03 12:43:12;;;;;;;;;;;21.40;68.40;;;;;;5017800;28;1607;-68
2023/11/03 12:45:41;;;;;;;;;;;21.40;68.50;;;;;;5009645;28;1146;-68
2023/11/03 12:48:23;;;;;;;;;;;21.40;68.50;;;;;;5009387;28;1074;-68
2023/11/03 12:50:53;;;;;;;;;;;21.30;68.50;;;;;;5006451;28;1273;-71
2023/11/03 12:53:18;;;;;;;;;;;21.30;68.50;;;;;;5002493;28;1498;-69
2023/11/03 12:55:46;;;;;;;;;;;21.30;68.50;;;;;;5004092;28;1435;-69
2023/11/03 12:58:13;;;;;;;;;;;21.30;68.50;;;;;;5004293;28;1256;-69
2023/11/03 13:00:39;;;;;;;;;;;21.30;68.60;;;;;;5004688;28;1906;-69
2023/11/03 13:03:06;;;;;;;;;;;21.30;68.60;;;;;;5006597;28;1205;-69
2023/11/03 13:05:31;;;;;;;;;;;21.30;68.60;;;;;;5002222;28;1455;-68
2023/11/03 13:07:57;;;;;;;;;;;21.30;68.60;;;;;;5010239;28;1423;-68
2023/11/03 13:10:23;;;;;;;;;;;21.30;68.70;;;;;;5004386;28;1454;-69
2023/11/03 13:12:48;;;;;;;;;;;21.30;68.70;;;;;;5005090;28;995;-69
2023/11/03 13:15:14;;;;;;;;;;;21.30;68.70;;;;;;5009135;28;1257;-68
2023/11/03 13:17:39;;;;;;;;;;;21.30;68.70;;;;;;4975444;28;4070;-68
2023/11/03 13:20:10;;;;;;;;;;;21.30;68.80;;;;;;5003119;28;1934;-67
2023/11/03 13:22:40;;;;;;;;;;;21.20;68.70;;;;;;5002808;28;994;-68
2023/11/03 13:25:06;;;;;;;;;;;21.30;68.80;;;;;;5002991;28;1117;-68
2023/11/03 13:27:32;;;;;;;;;;;21.30;68.80;;;;;;4999549;28;1100;-69
2023/11/03 13:29:57;;;;;;;;;;;21.20;68.80;;;;;;5002545;28;1196;-69
2023/11/03 13:32:23;;;;;;;;;;;21.20;68.80;;;;;;5019996;28;1225;-69
2023/11/03 13:34:49;;;;;;;;;;;21.20;68.80;;;;;;5004957;28;2038;-69
2023/11/03 13:37:15;;;;;;;;;;;21.20;68.80;;;;;;5003966;28;1971;-68
2023/11/03 13:39:41;;;;;;;;;;;21.20;68.90;;;;;;5002309;28;1023;-68
2023/11/03 13:42:07;;;;;;;;;;;21.20;68.90;;;;;;5016780;28;1894;-68
2023/11/03 13:44:33;;;;;;;;;;;21.20;68.90;;;;;;5000773;28;1315;-68
2023/11/03 13:46:58;;;;;;;;;;;21.20;68.90;;;;;;5000465;28;1505;-69
2023/11/03 13:49:25;;;;;;;;;;;21.20;68.90;;;;;;5004607;28;1100;-69
2023/11/03 13:51:51;;;;;;;;;;;21.20;69.00;;;;;;5001312;28;1504;-69
2023/11/03 13:54:16;;;;;;;;;;;21.20;69.00;;;;;;5004094;28;1372;-68
2023/11/03 13:56:43;;;;;;;;;;;21.20;69.00;;;;;;5000538;28;1508;-69
2023/11/03 13:59:09;;;;;;;;;;;21.20;69.00;;;;;;4999833;28;1296;-69
2023/11/03 14:01:36;;;;;;;;;;;21.20;69.00;;;;;;5002984;28;1938;-69
2023/11/03 14:04:02;;;;;;;;;;;21.20;69.10;;;;;;5005331;28;1621;-69
2023/11/03 14:06:28;;;;;;;;;;;21.20;69.10;;;;;;5004420;28;1355;-69
2023/11/03 14:08:54;;;;;;;;;;;21.20;69.10;;;;;;4999816;28;887;-69
2023/11/03 14:11:20;;;;;;;;;;;21.10;69.10;;;;;;5005923;28;1374;-68
2023/11/03 14:13:46;;;;;;;;;;;21.10;69.10;;;;;;4999000;28;1074;-68
2023/11/03 14:16:11;;;;;;;;;;;21.10;69.10;;;;;;4999463;28;1283;-69
2023/11/03 14:18:37;;;;;;;;;;;21.10;69.10;;;;;;5002674;28;1346;-68
2023/11/03 14:21:03;;;;;;;;;;;21.10;69.10;;;;;;5000218;28;1902;-69
2023/11/03 14:23:29;;;;;;;;;;;21.10;69.20;;;;;;5002549;28;1224;-69
2023/11/03 14:25:55;;;;;;;;;;;21.10;69.20;;;;;;5004760;28;1116;-68